createdAt,value
2023-05-08T00:00:31.307Z,8.03
2023-05-08T00:02:58.132Z,7.45
2023-05-08T00:05:25.288Z,7.10
2023-05-08T00:07:53.575Z,8.13
2023-05-08T00:10:20.386Z,7.77
2023-05-08T00:12:47.222Z,8.68
2023-05-08T00:15:14.229Z,9.30
2023-05-08T00:17:41.036Z,8.83
2023-05-08T00:20:08.818Z,7.57
2023-05-08T00:22:35.764Z,7.07
2023-05-08T00:25:03.403Z,6.77
2023-05-08T00:27:30.916Z,7.87
2023-05-08T00:29:58.143Z,8.00
2023-05-08T00:32:25.504Z,8.10
2023-05-08T00:34:52.889Z,7.97
2023-05-08T00:37:19.901Z,6.90
2023-05-08T00:39:46.588Z,8.43
2023-05-08T00:42:13.365Z,8.03
2023-05-08T00:44:40.244Z,7.60
2023-05-08T00:47:08.680Z,5.60
2023-05-08T00:49:36.111Z,5.78
2023-05-08T00:52:08.720Z,7.93
2023-05-08T00:54:37.900Z,7.13
2023-05-08T00:57:07.922Z,12.63
2023-05-08T00:59:36.891Z,6.25
2023-05-08T01:02:04.144Z,7.35
2023-05-08T01:04:31.883Z,7.72
2023-05-08T01:06:59.418Z,9.50
2023-05-08T01:09:26.484Z,5.88
2023-05-08T01:12:25.767Z,5.70
2023-05-08T01:14:58.404Z,8.18
2023-05-08T01:17:43.328Z,7.90
2023-05-08T01:20:29.113Z,5.43
2023-05-08T01:23:28.212Z,7.03
2023-05-08T01:26:28.740Z,5.22
2023-05-08T01:29:24.990Z,9.43
2023-05-08T01:32:24.387Z,7.88
2023-05-08T01:35:06.122Z,7.03
2023-05-08T01:37:49.431Z,7.45
2023-05-08T01:40:47.591Z,7.47
2023-05-08T01:43:19.045Z,7.13
2023-05-08T01:45:50.299Z,5.13
2023-05-08T01:48:44.914Z,5.28
2023-05-08T01:51:20.772Z,6.28
2023-05-08T01:53:52.521Z,7.50
2023-05-08T01:56:23.002Z,8.23
2023-05-08T01:58:52.989Z,7.47
2023-05-08T02:01:25.657Z,5.95
2023-05-08T02:03:54.801Z,5.05
2023-05-08T02:06:22.818Z,8.07
2023-05-08T02:08:51.507Z,4.90
2023-05-08T02:11:19.774Z,6.38
2023-05-08T02:13:48.665Z,8.30
2023-05-08T02:16:17.951Z,6.68
2023-05-08T02:18:52.530Z,9.02
2023-05-08T02:21:20.716Z,5.25
2023-05-08T02:23:48.531Z,6.35
2023-05-08T02:26:16.505Z,4.68
2023-05-08T02:28:45.410Z,6.80
2023-05-08T02:31:13.603Z,4.65
2023-05-08T02:33:42.543Z,6.35
2023-05-08T02:36:13.099Z,7.22
2023-05-08T02:38:44.141Z,5.25
2023-05-08T02:41:13.739Z,6.30
2023-05-08T02:43:41.018Z,5.93
2023-05-08T02:46:14.107Z,4.95
2023-05-08T02:48:44.642Z,5.35
2023-05-08T02:51:21.546Z,22.77
2023-05-08T02:54:19.882Z,23.08
2023-05-08T02:57:11.073Z,20.88
2023-05-08T02:59:44.016Z,21.33
2023-05-08T03:02:37.362Z,17.35
2023-05-08T03:05:14.573Z,22.13
2023-05-08T03:07:43.769Z,23.65
2023-05-08T03:10:16.953Z,21.60
2023-05-08T03:12:47.998Z,24.45
2023-05-08T03:15:26.037Z,23.80
2023-05-08T03:17:58.829Z,23.08
2023-05-08T03:20:27.165Z,24.02
2023-05-08T03:22:56.142Z,20.85
2023-05-08T03:25:24.261Z,22.77
2023-05-08T03:27:53.041Z,23.98
2023-05-08T03:30:21.347Z,22.33
2023-05-08T03:32:59.386Z,22.67
2023-05-08T03:35:27.896Z,23.05
2023-05-08T03:37:55.175Z,22.40
2023-05-08T03:40:22.093Z,22.92
2023-05-08T03:42:50.301Z,23.38
2023-05-08T03:45:19.027Z,22.75
2023-05-08T03:47:47.714Z,20.77
2023-05-08T03:50:16.105Z,23.20
2023-05-08T03:52:43.468Z,24.00
2023-05-08T03:55:10.381Z,21.58
2023-05-08T03:57:57.296Z,23.30
2023-05-08T04:00:42.570Z,22.48
2023-05-08T04:03:18.397Z,21.67
2023-05-08T04:06:30.802Z,20.10
2023-05-08T04:09:04.147Z,20.10
2023-05-08T04:11:38.595Z,20.70
2023-05-08T04:14:07.814Z,23.70
2023-05-08T04:16:48.431Z,19.58
2023-05-08T04:19:23.115Z,21.40
2023-05-08T04:21:51.654Z,20.67
2023-05-08T04:24:21.023Z,19.63
2023-05-08T04:26:48.715Z,18.80
2023-05-08T04:29:17.779Z,19.30
2023-05-08T04:31:45.603Z,20.02
2023-05-08T04:34:12.812Z,20.73
2023-05-08T04:36:40.417Z,17.70
2023-05-08T04:39:07.955Z,17.13
2023-05-08T04:41:35.976Z,17.90
2023-05-08T04:44:04.438Z,17.60
2023-05-08T04:46:31.637Z,16.70
2023-05-08T04:48:58.764Z,16.43
2023-05-08T04:51:29.499Z,17.50
2023-05-08T04:53:56.301Z,17.27
2023-05-08T04:56:23.246Z,17.90
2023-05-08T04:58:51.202Z,19.03
2023-05-08T05:01:18.430Z,17.43
2023-05-08T05:03:45.341Z,18.27
2023-05-08T05:06:12.749Z,16.87
2023-05-08T05:08:39.545Z,16.52
2023-05-08T05:11:07.148Z,15.73
2023-05-08T05:13:33.887Z,16.90
2023-05-08T05:16:00.873Z,18.90
2023-05-08T05:18:27.733Z,15.10
2023-05-08T05:20:58.112Z,15.90
2023-05-08T05:23:25.581Z,16.63
2023-05-08T05:25:52.697Z,14.33
2023-05-08T05:28:19.553Z,17.10
2023-05-08T05:30:49.462Z,16.47
2023-05-08T05:33:17.026Z,14.97
2023-05-08T05:35:44.423Z,15.53
2023-05-08T05:38:11.465Z,16.00
2023-05-08T05:40:38.634Z,17.87
2023-05-08T05:43:05.307Z,17.90
2023-05-08T05:45:33.613Z,15.60
2023-05-08T05:48:00.984Z,15.87
2023-05-08T05:50:28.669Z,17.00
2023-05-08T05:52:56.764Z,17.43
2023-05-08T05:55:23.717Z,18.53
2023-05-08T05:57:51.752Z,15.53
2023-05-08T06:00:19.236Z,18.10
2023-05-08T06:02:50.082Z,14.17
2023-05-08T06:05:19.709Z,17.70
2023-05-08T06:07:46.514Z,25.57
2023-05-08T06:10:13.399Z,18.63
2023-05-08T06:12:40.683Z,17.90
2023-05-08T06:15:09.462Z,15.23
2023-05-08T06:17:37.017Z,16.65
2023-05-08T06:20:04.458Z,16.17
2023-05-08T06:22:31.269Z,16.40
2023-05-08T06:24:58.649Z,15.23
2023-05-08T06:27:26.081Z,14.07
2023-05-08T06:29:53.397Z,15.90
2023-05-08T06:32:21.140Z,14.57
2023-05-08T06:34:49.146Z,16.47
2023-05-08T06:37:15.856Z,18.77
2023-05-08T06:39:42.662Z,16.60
2023-05-08T06:42:10.028Z,16.83
2023-05-08T06:44:41.318Z,14.53
2023-05-08T06:47:08.931Z,16.17
2023-05-08T06:49:37.261Z,15.70
2023-05-08T06:52:04.499Z,14.03
2023-05-08T06:54:31.256Z,14.83
2023-05-08T06:56:57.933Z,23.03
2023-05-08T06:59:24.999Z,21.90
2023-05-08T07:01:52.268Z,17.47
2023-05-08T07:04:19.348Z,17.43
2023-05-08T07:06:46.214Z,20.17
2023-05-08T07:09:12.995Z,15.43
2023-05-08T07:11:39.748Z,17.23
2023-05-08T07:14:07.582Z,15.40
2023-05-08T07:16:34.849Z,16.10
2023-05-08T07:19:01.717Z,16.87
2023-05-08T07:21:29.520Z,15.90
2023-05-08T07:23:56.733Z,17.67
2023-05-08T07:26:24.005Z,15.00
2023-05-08T07:28:54.349Z,18.40
2023-05-08T07:31:21.942Z,16.23
2023-05-08T07:33:49.688Z,20.05
2023-05-08T07:36:16.494Z,20.00
2023-05-08T07:38:43.274Z,19.25
2023-05-08T07:41:10.197Z,17.33
2023-05-08T07:43:37.934Z,17.02
2023-05-08T07:46:05.469Z,18.07
2023-05-08T07:48:32.219Z,16.17
2023-05-08T07:50:59.093Z,17.58
2023-05-08T07:53:25.976Z,19.08
2023-05-08T07:55:53.036Z,21.10
2023-05-08T07:58:21.132Z,17.52
2023-05-08T08:00:48.784Z,23.95
2023-05-08T08:03:15.492Z,18.75
2023-05-08T08:05:43.035Z,19.60
2023-05-08T08:08:09.775Z,17.23
2023-05-08T08:10:36.557Z,13.65
2023-05-08T08:13:03.311Z,20.02
2023-05-08T08:15:30.515Z,18.77
2023-05-08T08:17:57.574Z,21.25
2023-05-08T08:20:24.754Z,21.23
2023-05-08T08:22:51.430Z,22.67
2023-05-08T08:25:18.203Z,20.63
2023-05-08T08:27:44.939Z,24.75
2023-05-08T08:30:16.935Z,18.95
2023-05-08T08:32:44.999Z,20.98
2023-05-08T08:35:12.728Z,21.75
2023-05-08T08:37:40.337Z,20.65
2023-05-08T08:40:07.751Z,21.00
2023-05-08T08:42:35.730Z,22.55
2023-05-08T08:45:02.563Z,19.53
2023-05-08T08:47:34.839Z,18.87
2023-05-08T08:50:04.134Z,20.60
2023-05-08T08:52:41.320Z,20.80
2023-05-08T08:55:12.900Z,21.15
2023-05-08T08:57:48.705Z,23.25
2023-05-08T09:00:16.218Z,22.58
2023-05-08T09:02:43.673Z,21.63
2023-05-08T09:05:11.678Z,20.08
2023-05-08T09:07:39.822Z,20.60
2023-05-08T09:10:07.793Z,21.95
2023-05-08T09:12:34.657Z,24.35
2023-05-08T09:15:01.378Z,23.27
2023-05-08T09:17:28.268Z,20.65
2023-05-08T09:19:55.812Z,26.45
2023-05-08T09:22:24.624Z,23.42
2023-05-08T09:24:59.486Z,22.83
2023-05-08T09:27:28.096Z,26.63
2023-05-08T09:30:07.037Z,25.17
2023-05-08T09:32:35.935Z,33.78
2023-05-08T09:35:03.560Z,29.58
2023-05-08T09:37:30.748Z,27.95
2023-05-08T09:40:13.495Z,25.63
2023-05-08T09:42:41.063Z,27.05
2023-05-08T09:45:08.334Z,23.98
2023-05-08T09:47:39.640Z,24.88
2023-05-08T09:50:09.498Z,24.63
2023-05-08T09:52:38.238Z,23.50
2023-05-08T09:55:08.023Z,22.83
2023-05-08T09:57:38.308Z,22.70
2023-05-08T10:00:14.790Z,19.73
2023-05-08T10:02:53.488Z,22.63
2023-05-08T10:05:27.677Z,19.85
2023-05-08T10:07:54.633Z,26.25
2023-05-08T10:10:30.818Z,21.23
2023-05-08T10:12:58.802Z,25.23
2023-05-08T10:15:31.346Z,26.15
2023-05-08T10:18:03.174Z,25.52
2023-05-08T10:20:31.376Z,22.70
2023-05-08T10:22:59.286Z,22.60
2023-05-08T10:25:26.341Z,25.58
2023-05-08T10:28:28.711Z,22.90
2023-05-08T10:30:59.822Z,23.98
2023-05-08T10:33:33.533Z,28.63
2023-05-08T10:36:01.073Z,24.98
2023-05-08T10:38:28.022Z,24.10
2023-05-08T10:40:58.655Z,22.67
2023-05-08T10:43:26.311Z,20.88
2023-05-08T10:45:56.198Z,21.67
2023-05-08T10:48:45.377Z,23.90
2023-05-08T10:51:44.261Z,21.25
2023-05-08T10:54:19.381Z,22.30
2023-05-08T10:56:46.322Z,24.50
2023-05-08T10:59:20.763Z,22.80
2023-05-08T11:01:49.436Z,24.25
2023-05-08T11:04:22.229Z,23.55
2023-05-08T11:06:52.992Z,24.95
2023-05-08T11:09:27.085Z,23.48
2023-05-08T11:12:30.644Z,25.25
2023-05-08T11:15:02.050Z,21.25
2023-05-08T11:17:29.623Z,22.63
2023-05-08T11:20:00.155Z,27.20
2023-05-08T11:22:34.755Z,20.55
2023-05-08T11:25:11.445Z,23.55
2023-05-08T11:27:47.085Z,24.40
2023-05-08T11:30:35.006Z,26.23
2023-05-08T11:33:05.095Z,22.40
2023-05-08T11:35:43.360Z,25.00
2023-05-08T11:38:28.397Z,23.52
2023-05-08T11:41:03.338Z,22.95
2023-05-08T11:43:33.085Z,22.73
2023-05-08T11:46:10.770Z,24.02
2023-05-08T11:48:37.679Z,22.05
2023-05-08T11:51:04.611Z,24.08
2023-05-08T11:53:32.513Z,24.30
2023-05-08T11:56:00.604Z,22.30
2023-05-08T11:58:27.309Z,22.85
2023-05-08T12:00:54.782Z,24.00
2023-05-08T12:03:26.040Z,24.15
2023-05-08T12:05:57.483Z,25.38
2023-05-08T12:08:24.683Z,23.30
2023-05-08T12:10:57.268Z,25.42
2023-05-08T12:13:25.006Z,29.30
2023-05-08T12:16:01.004Z,25.10
2023-05-08T12:18:30.700Z,26.17
2023-05-08T12:20:59.747Z,24.30
2023-05-08T12:23:29.808Z,22.90
2023-05-08T12:26:01.109Z,24.05
2023-05-08T12:28:28.943Z,23.45
2023-05-08T12:30:56.234Z,21.98
2023-05-08T12:33:23.966Z,24.48
2023-05-08T12:35:50.989Z,22.50
2023-05-08T12:38:17.740Z,22.83
2023-05-08T12:40:46.551Z,23.77
2023-05-08T12:43:13.546Z,21.98
2023-05-08T12:45:42.933Z,21.48
2023-05-08T12:48:12.712Z,22.98
2023-05-08T12:50:41.607Z,23.70
2023-05-08T12:53:13.980Z,21.17
2023-05-08T12:55:53.666Z,21.58
2023-05-08T12:58:25.340Z,21.88
2023-05-08T13:00:54.798Z,23.40
2023-05-08T13:03:26.772Z,21.73
2023-05-08T13:05:55.602Z,23.77
2023-05-08T13:08:33.579Z,21.77
2023-05-08T13:11:01.518Z,21.60
2023-05-08T13:13:31.523Z,21.35
2023-05-08T13:16:02.455Z,21.90
2023-05-08T13:18:30.009Z,23.95
2023-05-08T13:20:57.835Z,27.33
2023-05-08T13:23:24.603Z,22.38
2023-05-08T13:25:51.687Z,21.48
2023-05-08T13:28:18.778Z,23.00
2023-05-08T13:30:46.147Z,24.80
2023-05-08T13:33:13.253Z,23.08
2023-05-08T13:35:40.083Z,24.17
2023-05-08T13:38:06.800Z,22.55
2023-05-08T13:40:33.687Z,25.00
2023-05-08T13:43:00.790Z,24.60
2023-05-08T13:45:27.925Z,25.67
2023-05-08T13:47:54.947Z,28.50
2023-05-08T13:50:22.510Z,24.77
2023-05-08T13:52:50.983Z,25.33
2023-05-08T13:55:21.912Z,27.05
2023-05-08T13:57:48.845Z,26.88
2023-05-08T14:00:16.162Z,25.92
2023-05-08T14:02:43.809Z,26.55
2023-05-08T14:05:10.678Z,23.58
2023-05-08T14:07:37.779Z,25.67
2023-05-08T14:10:05.075Z,27.83
2023-05-08T14:12:35.958Z,24.15
2023-05-08T14:15:06.350Z,26.27
2023-05-08T14:17:33.290Z,28.42
2023-05-08T14:20:00.538Z,24.98
2023-05-08T14:22:27.326Z,28.83
2023-05-08T14:24:54.261Z,29.63
2023-05-08T14:27:21.049Z,26.63
2023-05-08T14:29:48.110Z,31.63
2023-05-08T14:32:15.297Z,30.60
2023-05-08T14:34:42.422Z,31.55
2023-05-08T14:37:09.368Z,27.60
2023-05-08T14:39:36.098Z,28.60
2023-05-08T14:44:33.562Z,25.65
2023-05-08T14:47:00.548Z,27.05
2023-05-08T14:49:36.569Z,28.05
2023-05-08T14:52:05.712Z,25.35
2023-05-08T14:54:32.785Z,25.45
2023-05-08T14:56:59.855Z,27.25
2023-05-08T14:59:27.526Z,25.77
2023-05-08T15:01:55.189Z,26.75
2023-05-08T15:04:22.045Z,27.70
2023-05-08T15:06:49.289Z,29.10
2023-05-08T15:09:19.171Z,28.27
2023-05-08T15:11:45.925Z,27.23
2023-05-08T15:14:12.863Z,29.23
2023-05-08T15:16:39.851Z,26.73
2023-05-08T15:19:06.616Z,29.73
2023-05-08T15:21:33.584Z,29.23
2023-05-08T15:24:00.816Z,31.17
2023-05-08T15:26:28.081Z,30.27
2023-05-08T15:28:54.938Z,34.92
2023-05-08T15:31:21.790Z,30.80
2023-05-08T15:33:48.847Z,28.38
2023-05-08T15:36:16.054Z,29.92
2023-05-08T15:38:44.374Z,30.27
2023-05-08T15:41:15.444Z,29.85
2023-05-08T15:43:43.326Z,29.42
2023-05-08T15:46:10.467Z,32.55
2023-05-08T15:48:37.325Z,31.27
2023-05-08T15:51:04.349Z,28.90
2023-05-08T15:53:31.192Z,31.55
2023-05-08T15:55:58.500Z,31.05
2023-05-08T15:58:25.384Z,31.58
2023-05-08T16:00:52.304Z,30.73
2023-05-08T16:03:19.593Z,28.17
2023-05-08T16:05:46.409Z,31.80
2023-05-08T16:08:13.939Z,32.05
2023-05-08T16:10:41.936Z,32.00
2023-05-08T16:13:09.329Z,26.08
2023-05-08T16:15:36.201Z,28.33
2023-05-08T16:18:03.350Z,32.80
2023-05-08T16:20:30.592Z,28.88
2023-05-08T16:22:58.799Z,27.17
2023-05-08T16:25:25.905Z,29.08
2023-05-08T16:27:52.863Z,27.75
2023-05-08T16:30:19.772Z,28.13
2023-05-08T16:32:46.814Z,30.83
2023-05-08T16:35:14.246Z,30.17
2023-05-08T16:37:41.663Z,27.25
2023-05-08T16:40:09.480Z,29.08
2023-05-08T16:42:37.139Z,31.83
2023-05-08T16:45:08.146Z,28.88
2023-05-08T16:47:35.358Z,31.25
2023-05-08T16:50:03.221Z,31.13
2023-05-08T16:52:31.291Z,25.52
2023-05-08T16:54:59.223Z,24.50
2023-05-08T16:57:27.455Z,28.42
2023-05-08T16:59:54.752Z,26.48
2023-05-08T17:02:22.055Z,23.25
2023-05-08T17:04:49.972Z,24.45
2023-05-08T17:07:18.302Z,26.95
2023-05-08T17:09:48.306Z,21.55
2023-05-08T17:12:15.744Z,23.55
2023-05-08T17:14:42.729Z,23.40
2023-05-08T17:17:09.940Z,24.60
2023-05-08T17:19:36.766Z,22.88
2023-05-08T17:22:03.807Z,26.95
2023-05-08T17:24:32.586Z,23.60
2023-05-08T17:26:59.680Z,25.52
2023-05-08T17:29:26.567Z,26.00
2023-05-08T17:31:53.430Z,23.42
2023-05-08T17:34:22.804Z,27.95
2023-05-08T17:36:50.479Z,21.13
2023-05-08T17:39:20.117Z,23.17
2023-05-08T17:41:48.768Z,24.08
2023-05-08T17:44:16.698Z,19.23
2023-05-08T17:46:43.822Z,26.33
2023-05-08T17:49:11.798Z,22.40
2023-05-08T17:51:38.660Z,28.00
2023-05-08T17:54:06.486Z,24.40
2023-05-08T17:56:34.034Z,22.85
2023-05-08T17:59:01.355Z,24.75
2023-05-08T18:01:30.080Z,24.20
2023-05-08T18:03:56.966Z,22.23
2023-05-08T18:06:23.869Z,20.95
2023-05-08T18:08:51.217Z,21.88
2023-05-08T18:11:20.113Z,23.17
2023-05-08T18:13:47.212Z,20.67
2023-05-08T18:16:16.234Z,23.15
2023-05-08T18:18:43.326Z,20.17
2023-05-08T18:21:10.196Z,23.17
2023-05-08T18:23:37.337Z,27.85
2023-05-08T18:26:04.619Z,22.90
2023-05-08T18:28:32.194Z,26.23
2023-05-08T18:30:59.367Z,25.10
2023-05-08T18:33:27.417Z,25.20
2023-05-08T18:35:54.225Z,25.15
2023-05-08T18:38:21.451Z,24.90
2023-05-08T18:40:48.321Z,24.67
2023-05-08T18:43:15.621Z,24.40
2023-05-08T18:45:43.042Z,22.95
2023-05-08T18:48:11.157Z,21.02
2023-05-08T18:50:41.061Z,24.13
2023-05-08T18:53:10.129Z,22.15
2023-05-08T18:55:37.656Z,27.80
2023-05-08T18:58:06.469Z,26.60
2023-05-08T19:00:33.720Z,24.05
2023-05-08T19:03:01.540Z,26.48
2023-05-08T19:05:28.956Z,23.63
2023-05-08T19:07:56.279Z,22.40
2023-05-08T19:10:24.096Z,22.75
2023-05-08T19:12:51.908Z,25.35
2023-05-08T19:15:19.782Z,21.30
2023-05-08T19:17:47.863Z,26.60
2023-05-08T19:20:16.417Z,23.42
2023-05-08T19:22:43.911Z,27.20
2023-05-08T19:25:12.874Z,29.55
2023-05-08T19:27:40.239Z,24.05
2023-05-08T19:30:08.438Z,25.02
2023-05-08T19:32:35.671Z,24.98
2023-05-08T19:35:02.943Z,25.23
2023-05-08T19:37:31.189Z,29.15
2023-05-08T19:39:58.517Z,25.63
2023-05-08T19:42:26.079Z,26.85
2023-05-08T19:44:53.444Z,25.63
2023-05-08T19:47:21.236Z,26.75
2023-05-08T19:49:50.115Z,28.07
2023-05-08T19:52:17.904Z,30.27
2023-05-08T19:54:46.289Z,33.08
2023-05-08T19:57:13.464Z,26.33
2023-05-08T19:59:40.570Z,28.58
2023-05-08T20:02:07.395Z,29.25
2023-05-08T20:04:43.827Z,34.33
2023-05-08T20:07:21.118Z,32.53
2023-05-08T20:09:47.970Z,31.40
2023-05-08T20:12:14.756Z,33.65
2023-05-08T20:14:41.638Z,29.50
2023-05-08T20:17:08.747Z,30.53
2023-05-08T20:19:35.638Z,32.43
2023-05-08T20:22:03.174Z,32.20
2023-05-08T20:24:30.394Z,32.38
2023-05-08T20:26:58.202Z,30.23
2023-05-08T20:29:25.025Z,33.13
2023-05-08T20:31:52.584Z,34.53
2023-05-08T20:34:21.817Z,32.07
2023-05-08T20:36:49.446Z,33.47
2023-05-08T20:39:16.903Z,36.53
2023-05-08T20:41:43.664Z,36.03
2023-05-08T20:44:12.430Z,33.57
2023-05-08T20:46:40.729Z,47.07
2023-05-08T20:49:07.944Z,37.60
2023-05-08T20:51:36.486Z,36.27
2023-05-08T20:54:03.596Z,36.47
2023-05-08T20:56:30.470Z,35.60
2023-05-08T20:58:57.469Z,33.23
2023-05-08T21:01:24.206Z,34.80
2023-05-08T21:03:51.082Z,34.27
2023-05-08T21:06:18.364Z,31.67
2023-05-08T21:08:45.117Z,34.70
2023-05-08T21:11:12.630Z,37.30
2023-05-08T21:13:39.374Z,34.97
2023-05-08T21:16:07.893Z,39.40
2023-05-08T21:18:34.836Z,34.77
2023-05-08T21:21:01.911Z,38.67
2023-05-08T21:23:30.049Z,30.33
2023-05-08T21:25:56.778Z,32.93
2023-05-08T21:28:23.500Z,34.57
2023-05-08T21:30:50.302Z,34.53
2023-05-08T21:33:18.366Z,38.50
2023-05-08T21:35:45.396Z,37.17
2023-05-08T21:38:12.159Z,36.77
2023-05-08T21:40:39.388Z,40.40
2023-05-08T21:43:06.292Z,42.20
2023-05-08T21:45:34.068Z,36.73
2023-05-08T21:48:01.288Z,35.03
2023-05-08T21:50:28.553Z,36.93
2023-05-08T21:52:56.586Z,38.93
2023-05-08T21:55:23.939Z,35.83
2023-05-08T21:57:51.341Z,33.40
2023-05-08T22:00:19.053Z,35.63
2023-05-08T22:02:48.838Z,36.63
2023-05-08T22:05:15.783Z,37.93
2023-05-08T22:07:42.852Z,34.83
2023-05-08T22:10:11.532Z,35.97
2023-05-08T22:12:38.769Z,39.17
2023-05-08T22:15:14.811Z,39.80
2023-05-08T22:17:50.710Z,37.37
2023-05-08T22:20:18.731Z,35.83
2023-05-08T22:22:45.870Z,35.73
2023-05-08T22:25:12.782Z,36.23
2023-05-08T22:27:40.023Z,36.67
2023-05-08T22:30:07.554Z,30.20
2023-05-08T22:32:34.555Z,33.77
2023-05-08T22:35:01.285Z,35.17
2023-05-08T22:37:28.064Z,34.60
2023-05-08T22:39:54.966Z,33.20
2023-05-08T22:42:21.926Z,34.27
2023-05-08T22:44:49.062Z,30.97
2023-05-08T22:47:16.122Z,34.20
2023-05-08T22:49:43.643Z,34.97
2023-05-08T22:52:10.444Z,33.73
2023-05-08T22:54:37.218Z,29.90
2023-05-08T22:57:04.350Z,34.37
2023-05-08T22:59:31.111Z,36.60
2023-05-08T23:01:58.089Z,34.80
2023-05-08T23:04:25.175Z,35.40
2023-05-08T23:06:52.058Z,30.23
2023-05-08T23:09:19.182Z,31.57
2023-05-08T23:11:45.884Z,32.33
2023-05-08T23:14:12.714Z,31.97
2023-05-08T23:16:39.510Z,31.77
2023-05-08T23:19:07.399Z,26.83
2023-05-08T23:21:34.581Z,31.10
2023-05-08T23:24:01.371Z,32.97
2023-05-08T23:26:28.109Z,29.60
2023-05-08T23:28:54.816Z,30.67
2023-05-08T23:31:22.032Z,33.57
2023-05-08T23:33:48.785Z,27.40
2023-05-08T23:36:15.528Z,34.30
2023-05-08T23:38:42.378Z,29.33
2023-05-08T23:41:10.944Z,30.77
2023-05-08T23:43:37.857Z,29.17
2023-05-08T23:46:04.813Z,30.47
2023-05-08T23:48:31.671Z,31.23
2023-05-08T23:50:58.363Z,32.10
2023-05-08T23:53:25.084Z,31.73
2023-05-08T23:55:52.449Z,25.87
2023-05-08T23:58:19.714Z,26.70
